sensor_id;sensor_type;location;lat;lon;timestamp;P1;durP1;ratioP1;P2;durP2;ratioP2
11827;SDS011;5971;49.646;8.568;2024-02-21T00:01:44;10.00;;;5.00;;
11827;SDS011;5971;49.646;8.568;2024-02-21T00:04:45;9.73;;;4.10;;
11827;SDS011;5971;49.646;8.568;2024-02-21T00:07:47;10.32;;;4.47;;
11827;SDS011;5971;49.646;8.568;2024-02-21T00:10:49;14.65;;;5.03;;
11827;SDS011;5971;49.646;8.568;2024-02-21T00:13:50;13.10;;;4.95;;
11827;SDS011;5971;49.646;8.568;2024-02-21T00:16:52;11.95;;;4.45;;
11827;SDS011;5971;49.646;8.568;2024-02-21T00:19:54;13.63;;;4.68;;
11827;SDS011;5971;49.646;8.568;2024-02-21T00:22:56;11.63;;;5.85;;
11827;SDS011;5971;49.646;8.568;2024-02-21T00:25:57;12.77;;;4.07;;
11827;SDS011;5971;49.646;8.568;2024-02-21T00:28:58;14.32;;;5.10;;
11827;SDS011;5971;49.646;8.568;2024-02-21T00:32:00;12.93;;;4.50;;
11827;SDS011;5971;49.646;8.568;2024-02-21T00:35:01;13.77;;;5.05;;
11827;SDS011;5971;49.646;8.568;2024-02-21T00:38:03;15.68;;;5.78;;
11827;SDS011;5971;49.646;8.568;2024-02-21T00:41:04;13.52;;;5.13;;
11827;SDS011;5971;49.646;8.568;2024-02-21T00:44:06;14.07;;;5.10;;
11827;SDS011;5971;49.646;8.568;2024-02-21T00:47:07;11.52;;;5.30;;
11827;SDS011;5971;49.646;8.568;2024-02-21T00:50:08;16.05;;;5.53;;
11827;SDS011;5971;49.646;8.568;2024-02-21T00:53:11;15.57;;;5.35;;
11827;SDS011;5971;49.646;8.568;2024-02-21T00:56:12;17.88;;;6.05;;
11827;SDS011;5971;49.646;8.568;2024-02-21T00:59:13;16.35;;;6.43;;
11827;SDS011;5971;49.646;8.568;2024-02-21T01:02:15;14.00;;;5.72;;
11827;SDS011;5971;49.646;8.568;2024-02-21T01:05:16;14.13;;;5.80;;
11827;SDS011;5971;49.646;8.568;2024-02-21T01:08:18;16.40;;;5.85;;
11827;SDS011;5971;49.646;8.568;2024-02-21T01:11:19;12.63;;;6.60;;
11827;SDS011;5971;49.646;8.568;2024-02-21T01:14:21;11.57;;;5.28;;
11827;SDS011;5971;49.646;8.568;2024-02-21T01:17:22;14.88;;;5.88;;
11827;SDS011;5971;49.646;8.568;2024-02-21T01:20:23;14.30;;;5.72;;
11827;SDS011;5971;49.646;8.568;2024-02-21T01:23:25;9.38;;;4.97;;
11827;SDS011;5971;49.646;8.568;2024-02-21T01:26:26;13.05;;;5.60;;
11827;SDS011;5971;49.646;8.568;2024-02-21T01:29:27;10.50;;;4.10;;
11827;SDS011;5971;49.646;8.568;2024-02-21T01:32:29;9.75;;;4.38;;
11827;SDS011;5971;49.646;8.568;2024-02-21T01:35:30;9.23;;;4.00;;
11827;SDS011;5971;49.646;8.568;2024-02-21T01:38:31;15.02;;;4.97;;
11827;SDS011;5971;49.646;8.568;2024-02-21T01:41:33;11.10;;;5.07;;
11827;SDS011;5971;49.646;8.568;2024-02-21T01:44:34;13.40;;;4.53;;
11827;SDS011;5971;49.646;8.568;2024-02-21T01:47:36;10.32;;;4.40;;
11827;SDS011;5971;49.646;8.568;2024-02-21T01:50:38;10.43;;;4.38;;
11827;SDS011;5971;49.646;8.568;2024-02-21T01:53:41;12.77;;;5.57;;
11827;SDS011;5971;49.646;8.568;2024-02-21T01:56:44;14.02;;;4.18;;
11827;SDS011;5971;49.646;8.568;2024-02-21T01:59:45;10.45;;;4.13;;
11827;SDS011;5971;49.646;8.568;2024-02-21T02:02:47;11.48;;;5.15;;
11827;SDS011;5971;49.646;8.568;2024-02-21T02:05:49;12.05;;;4.55;;
11827;SDS011;5971;49.646;8.568;2024-02-21T02:08:50;9.75;;;4.85;;
11827;SDS011;5971;49.646;8.568;2024-02-21T02:11:52;13.20;;;5.82;;
11827;SDS011;5971;49.646;8.568;2024-02-21T02:15:02;11.93;;;4.72;;
11827;SDS011;5971;49.646;8.568;2024-02-21T02:18:07;15.70;;;5.25;;
11827;SDS011;5971;49.646;8.568;2024-02-21T02:21:13;14.05;;;4.55;;
11827;SDS011;5971;49.646;8.568;2024-02-21T02:24:16;9.98;;;4.40;;
11827;SDS011;5971;49.646;8.568;2024-02-21T02:27:18;12.68;;;4.45;;
11827;SDS011;5971;49.646;8.568;2024-02-21T02:30:19;12.35;;;4.95;;
11827;SDS011;5971;49.646;8.568;2024-02-21T02:33:21;10.23;;;4.43;;
11827;SDS011;5971;49.646;8.568;2024-02-21T02:36:22;16.02;;;4.85;;
11827;SDS011;5971;49.646;8.568;2024-02-21T02:39:24;10.48;;;4.28;;
11827;SDS011;5971;49.646;8.568;2024-02-21T02:42:25;10.15;;;3.95;;
11827;SDS011;5971;49.646;8.568;2024-02-21T02:45:26;13.27;;;5.03;;
11827;SDS011;5971;49.646;8.568;2024-02-21T02:48:28;14.25;;;4.50;;
11827;SDS011;5971;49.646;8.568;2024-02-21T02:51:29;13.85;;;5.18;;
11827;SDS011;5971;49.646;8.568;2024-02-21T02:54:31;10.10;;;4.30;;
11827;SDS011;5971;49.646;8.568;2024-02-21T02:57:32;13.73;;;4.63;;
11827;SDS011;5971;49.646;8.568;2024-02-21T03:00:33;9.82;;;4.18;;
11827;SDS011;5971;49.646;8.568;2024-02-21T03:03:37;11.63;;;4.30;;
11827;SDS011;5971;49.646;8.568;2024-02-21T03:06:39;14.85;;;4.93;;
11827;SDS011;5971;49.646;8.568;2024-02-21T03:09:41;16.58;;;5.57;;
11827;SDS011;5971;49.646;8.568;2024-02-21T03:12:43;9.95;;;4.93;;
11827;SDS011;5971;49.646;8.568;2024-02-21T03:15:45;15.23;;;5.50;;
11827;SDS011;5971;49.646;8.568;2024-02-21T03:18:46;12.88;;;4.82;;
11827;SDS011;5971;49.646;8.568;2024-02-21T03:21:48;16.20;;;5.28;;
11827;SDS011;5971;49.646;8.568;2024-02-21T03:24:50;10.25;;;4.30;;
11827;SDS011;5971;49.646;8.568;2024-02-21T03:27:52;11.93;;;4.40;;
11827;SDS011;5971;49.646;8.568;2024-02-21T03:30:53;11.38;;;4.82;;
11827;SDS011;5971;49.646;8.568;2024-02-21T03:33:54;12.57;;;4.43;;
11827;SDS011;5971;49.646;8.568;2024-02-21T03:36:56;12.27;;;4.45;;
11827;SDS011;5971;49.646;8.568;2024-02-21T03:39:57;12.30;;;4.47;;
11827;SDS011;5971;49.646;8.568;2024-02-21T03:42:59;13.60;;;4.53;;
11827;SDS011;5971;49.646;8.568;2024-02-21T03:46:00;11.02;;;4.68;;
11827;SDS011;5971;49.646;8.568;2024-02-21T03:49:02;12.98;;;5.18;;
11827;SDS011;5971;49.646;8.568;2024-02-21T03:52:03;10.52;;;4.60;;
11827;SDS011;5971;49.646;8.568;2024-02-21T03:55:05;12.55;;;4.78;;
11827;SDS011;5971;49.646;8.568;2024-02-21T03:58:08;9.27;;;4.95;;
11827;SDS011;5971;49.646;8.568;2024-02-21T04:01:10;14.52;;;5.03;;
11827;SDS011;5971;49.646;8.568;2024-02-21T04:04:11;10.68;;;4.25;;
11827;SDS011;5971;49.646;8.568;2024-02-21T04:07:13;11.55;;;3.97;;
11827;SDS011;5971;49.646;8.568;2024-02-21T04:10:14;11.60;;;4.10;;
11827;SDS011;5971;49.646;8.568;2024-02-21T04:13:16;11.23;;;4.30;;
11827;SDS011;5971;49.646;8.568;2024-02-21T04:16:20;11.85;;;4.30;;
11827;SDS011;5971;49.646;8.568;2024-02-21T04:19:21;9.02;;;4.38;;
11827;SDS011;5971;49.646;8.568;2024-02-21T04:22:23;13.18;;;4.55;;
11827;SDS011;5971;49.646;8.568;2024-02-21T04:25:24;10.20;;;4.72;;
11827;SDS011;5971;49.646;8.568;2024-02-21T04:28:25;11.32;;;4.47;;
11827;SDS011;5971;49.646;8.568;2024-02-21T04:31:27;9.02;;;3.83;;
11827;SDS011;5971;49.646;8.568;2024-02-21T04:34:28;8.68;;;4.20;;
11827;SDS011;5971;49.646;8.568;2024-02-21T04:37:30;11.88;;;4.90;;
11827;SDS011;5971;49.646;8.568;2024-02-21T04:40:32;9.70;;;4.15;;
11827;SDS011;5971;49.646;8.568;2024-02-21T04:43:33;12.85;;;4.45;;
11827;SDS011;5971;49.646;8.568;2024-02-21T04:46:35;9.55;;;4.38;;
11827;SDS011;5971;49.646;8.568;2024-02-21T04:49:36;11.23;;;4.45;;
11827;SDS011;5971;49.646;8.568;2024-02-21T04:52:37;10.38;;;4.13;;
11827;SDS011;5971;49.646;8.568;2024-02-21T04:55:39;9.38;;;3.67;;
11827;SDS011;5971;49.646;8.568;2024-02-21T04:58:41;9.27;;;4.30;;
11827;SDS011;5971;49.646;8.568;2024-02-21T05:01:42;10.55;;;4.40;;
11827;SDS011;5971;49.646;8.568;2024-02-21T05:04:44;9.85;;;3.97;;
11827;SDS011;5971;49.646;8.568;2024-02-21T05:07:45;12.77;;;5.75;;
11827;SDS011;5971;49.646;8.568;2024-02-21T05:10:47;12.05;;;4.05;;
11827;SDS011;5971;49.646;8.568;2024-02-21T05:13:49;10.52;;;5.18;;
11827;SDS011;5971;49.646;8.568;2024-02-21T05:16:51;10.23;;;6.18;;
11827;SDS011;5971;49.646;8.568;2024-02-21T05:19:52;12.27;;;4.63;;
11827;SDS011;5971;49.646;8.568;2024-02-21T05:22:54;9.75;;;4.65;;
11827;SDS011;5971;49.646;8.568;2024-02-21T05:25:55;12.57;;;4.93;;
11827;SDS011;5971;49.646;8.568;2024-02-21T05:28:56;10.93;;;4.72;;
11827;SDS011;5971;49.646;8.568;2024-02-21T05:32:01;13.93;;;5.20;;
11827;SDS011;5971;49.646;8.568;2024-02-21T05:35:03;11.40;;;4.10;;
11827;SDS011;5971;49.646;8.568;2024-02-21T05:38:05;13.10;;;5.03;;
11827;SDS011;5971;49.646;8.568;2024-02-21T05:41:12;12.60;;;5.15;;
11827;SDS011;5971;49.646;8.568;2024-02-21T05:44:15;12.15;;;5.78;;
11827;SDS011;5971;49.646;8.568;2024-02-21T05:47:16;12.13;;;5.07;;
11827;SDS011;5971;49.646;8.568;2024-02-21T05:50:18;12.00;;;4.80;;
11827;SDS011;5971;49.646;8.568;2024-02-21T05:53:20;15.80;;;4.70;;
11827;SDS011;5971;49.646;8.568;2024-02-21T05:56:21;9.32;;;3.95;;
11827;SDS011;5971;49.646;8.568;2024-02-21T05:59:23;10.35;;;4.38;;
11827;SDS011;5971;49.646;8.568;2024-02-21T06:02:24;13.23;;;3.90;;
11827;SDS011;5971;49.646;8.568;2024-02-21T06:05:25;7.60;;;4.53;;
11827;SDS011;5971;49.646;8.568;2024-02-21T06:08:27;13.98;;;4.88;;
11827;SDS011;5971;49.646;8.568;2024-02-21T06:11:28;10.15;;;4.07;;
11827;SDS011;5971;49.646;8.568;2024-02-21T06:14:33;12.65;;;3.95;;
11827;SDS011;5971;49.646;8.568;2024-02-21T06:17:34;10.45;;;3.97;;
11827;SDS011;5971;49.646;8.568;2024-02-21T06:20:36;11.20;;;4.47;;
11827;SDS011;5971;49.646;8.568;2024-02-21T06:23:40;8.48;;;3.80;;
11827;SDS011;5971;49.646;8.568;2024-02-21T06:26:41;8.38;;;4.43;;
11827;SDS011;5971;49.646;8.568;2024-02-21T06:29:43;10.88;;;3.90;;
11827;SDS011;5971;49.646;8.568;2024-02-21T06:32:44;9.75;;;4.47;;
11827;SDS011;5971;49.646;8.568;2024-02-21T06:35:45;8.95;;;3.67;;
11827;SDS011;5971;49.646;8.568;2024-02-21T06:38:48;10.80;;;4.40;;
11827;SDS011;5971;49.646;8.568;2024-02-21T06:41:50;10.50;;;3.95;;
11827;SDS011;5971;49.646;8.568;2024-02-21T06:44:51;10.68;;;4.75;;
11827;SDS011;5971;49.646;8.568;2024-02-21T06:47:53;10.13;;;4.25;;
11827;SDS011;5971;49.646;8.568;2024-02-21T06:50:55;12.30;;;4.15;;
11827;SDS011;5971;49.646;8.568;2024-02-21T06:53:57;12.73;;;4.38;;
11827;SDS011;5971;49.646;8.568;2024-02-21T06:56:58;9.52;;;4.28;;
11827;SDS011;5971;49.646;8.568;2024-02-21T06:59:59;12.98;;;4.07;;
11827;SDS011;5971;49.646;8.568;2024-02-21T07:03:01;14.77;;;4.30;;
11827;SDS011;5971;49.646;8.568;2024-02-21T07:06:02;9.25;;;4.35;;
11827;SDS011;5971;49.646;8.568;2024-02-21T07:09:04;11.88;;;4.53;;
11827;SDS011;5971;49.646;8.568;2024-02-21T07:12:05;10.02;;;4.60;;
11827;SDS011;5971;49.646;8.568;2024-02-21T07:15:07;10.88;;;5.55;;
11827;SDS011;5971;49.646;8.568;2024-02-21T07:18:09;8.80;;;4.22;;
11827;SDS011;5971;49.646;8.568;2024-02-21T07:21:10;11.10;;;4.93;;
11827;SDS011;5971;49.646;8.568;2024-02-21T07:24:11;12.75;;;5.15;;
11827;SDS011;5971;49.646;8.568;2024-02-21T07:27:14;10.40;;;4.05;;
11827;SDS011;5971;49.646;8.568;2024-02-21T07:30:16;12.38;;;4.40;;
11827;SDS011;5971;49.646;8.568;2024-02-21T07:33:18;12.57;;;5.03;;
11827;SDS011;5971;49.646;8.568;2024-02-21T07:36:27;11.95;;;4.90;;
11827;SDS011;5971;49.646;8.568;2024-02-21T07:39:29;12.48;;;5.82;;
11827;SDS011;5971;49.646;8.568;2024-02-21T07:42:30;11.82;;;5.00;;
11827;SDS011;5971;49.646;8.568;2024-02-21T07:45:31;12.57;;;5.10;;
11827;SDS011;5971;49.646;8.568;2024-02-21T07:48:33;11.18;;;3.88;;
11827;SDS011;5971;49.646;8.568;2024-02-21T07:51:35;10.18;;;4.00;;
11827;SDS011;5971;49.646;8.568;2024-02-21T07:54:37;9.90;;;4.30;;
11827;SDS011;5971;49.646;8.568;2024-02-21T07:57:40;11.48;;;3.92;;
11827;SDS011;5971;49.646;8.568;2024-02-21T08:00:42;10.05;;;4.35;;
11827;SDS011;5971;49.646;8.568;2024-02-21T08:03:43;10.73;;;4.18;;
11827;SDS011;5971;49.646;8.568;2024-02-21T08:06:44;11.68;;;4.38;;
11827;SDS011;5971;49.646;8.568;2024-02-21T08:09:46;13.45;;;4.10;;
11827;SDS011;5971;49.646;8.568;2024-02-21T08:12:47;11.68;;;4.82;;
11827;SDS011;5971;49.646;8.568;2024-02-21T08:15:49;10.80;;;4.75;;
11827;SDS011;5971;49.646;8.568;2024-02-21T08:18:50;12.88;;;5.10;;
11827;SDS011;5971;49.646;8.568;2024-02-21T08:21:51;10.07;;;4.03;;
11827;SDS011;5971;49.646;8.568;2024-02-21T08:24:53;13.00;;;5.10;;
11827;SDS011;5971;49.646;8.568;2024-02-21T08:27:57;9.75;;;5.35;;
11827;SDS011;5971;49.646;8.568;2024-02-21T08:30:58;8.77;;;4.35;;
11827;SDS011;5971;49.646;8.568;2024-02-21T08:34:00;12.63;;;4.43;;
11827;SDS011;5971;49.646;8.568;2024-02-21T08:37:05;11.77;;;4.25;;
11827;SDS011;5971;49.646;8.568;2024-02-21T08:40:06;10.15;;;5.18;;
11827;SDS011;5971;49.646;8.568;2024-02-21T08:43:10;10.82;;;4.90;;
11827;SDS011;5971;49.646;8.568;2024-02-21T08:46:12;9.80;;;4.05;;
11827;SDS011;5971;49.646;8.568;2024-02-21T08:49:13;7.55;;;3.53;;
11827;SDS011;5971;49.646;8.568;2024-02-21T08:52:15;9.27;;;4.00;;
11827;SDS011;5971;49.646;8.568;2024-02-21T08:55:16;11.75;;;4.53;;
11827;SDS011;5971;49.646;8.568;2024-02-21T08:58:17;10.00;;;3.85;;
11827;SDS011;5971;49.646;8.568;2024-02-21T09:01:22;10.57;;;3.55;;
11827;SDS011;5971;49.646;8.568;2024-02-21T09:04:24;7.63;;;4.20;;
11827;SDS011;5971;49.646;8.568;2024-02-21T09:07:25;9.23;;;4.57;;
11827;SDS011;5971;49.646;8.568;2024-02-21T09:10:27;13.00;;;3.97;;
11827;SDS011;5971;49.646;8.568;2024-02-21T09:13:28;9.98;;;3.83;;
11827;SDS011;5971;49.646;8.568;2024-02-21T09:16:33;10.85;;;3.67;;
11827;SDS011;5971;49.646;8.568;2024-02-21T09:19:35;11.18;;;3.53;;
11827;SDS011;5971;49.646;8.568;2024-02-21T09:22:36;10.23;;;3.80;;
11827;SDS011;5971;49.646;8.568;2024-02-21T09:25:39;11.05;;;4.45;;
11827;SDS011;5971;49.646;8.568;2024-02-21T09:28:41;9.38;;;4.15;;
11827;SDS011;5971;49.646;8.568;2024-02-21T09:31:42;7.82;;;3.67;;
11827;SDS011;5971;49.646;8.568;2024-02-21T09:34:44;8.57;;;3.60;;
11827;SDS011;5971;49.646;8.568;2024-02-21T09:37:46;7.13;;;3.22;;
11827;SDS011;5971;49.646;8.568;2024-02-21T09:40:52;9.60;;;3.58;;
11827;SDS011;5971;49.646;8.568;2024-02-21T09:43:55;9.20;;;3.08;;
11827;SDS011;5971;49.646;8.568;2024-02-21T09:47:02;9.52;;;3.72;;
11827;SDS011;5971;49.646;8.568;2024-02-21T09:50:06;9.15;;;4.00;;
11827;SDS011;5971;49.646;8.568;2024-02-21T09:53:07;7.53;;;3.33;;
11827;SDS011;5971;49.646;8.568;2024-02-21T09:56:09;12.90;;;3.67;;
11827;SDS011;5971;49.646;8.568;2024-02-21T09:59:15;7.47;;;3.53;;
11827;SDS011;5971;49.646;8.568;2024-02-21T10:02:17;7.50;;;3.47;;
11827;SDS011;5971;49.646;8.568;2024-02-21T10:05:19;9.57;;;3.92;;
11827;SDS011;5971;49.646;8.568;2024-02-21T10:08:21;6.47;;;3.55;;
11827;SDS011;5971;49.646;8.568;2024-02-21T10:11:23;7.80;;;3.60;;
11827;SDS011;5971;49.646;8.568;2024-02-21T10:14:24;11.20;;;3.50;;
11827;SDS011;5971;49.646;8.568;2024-02-21T10:17:26;10.10;;;3.38;;
11827;SDS011;5971;49.646;8.568;2024-02-21T10:20:27;8.30;;;3.40;;
11827;SDS011;5971;49.646;8.568;2024-02-21T10:23:29;12.60;;;4.38;;
11827;SDS011;5971;49.646;8.568;2024-02-21T10:26:30;8.98;;;3.03;;
11827;SDS011;5971;49.646;8.568;2024-02-21T10:29:31;9.05;;;3.22;;
11827;SDS011;5971;49.646;8.568;2024-02-21T10:32:33;7.05;;;2.70;;
11827;SDS011;5971;49.646;8.568;2024-02-21T10:35:34;7.10;;;3.08;;
11827;SDS011;5971;49.646;8.568;2024-02-21T10:38:39;9.95;;;2.80;;
11827;SDS011;5971;49.646;8.568;2024-02-21T10:41:40;8.35;;;4.10;;
11827;SDS011;5971;49.646;8.568;2024-02-21T10:44:43;8.13;;;3.10;;
11827;SDS011;5971;49.646;8.568;2024-02-21T10:47:47;5.85;;;2.70;;
11827;SDS011;5971;49.646;8.568;2024-02-21T10:51:01;5.85;;;2.72;;
11827;SDS011;5971;49.646;8.568;2024-02-21T10:57:17;6.03;;;2.50;;
11827;SDS011;5971;49.646;8.568;2024-02-21T11:00:18;4.95;;;2.22;;
11827;SDS011;5971;49.646;8.568;2024-02-21T11:03:20;5.05;;;2.25;;
11827;SDS011;5971;49.646;8.568;2024-02-21T11:06:21;5.25;;;2.15;;
11827;SDS011;5971;49.646;8.568;2024-02-21T11:09:32;5.65;;;1.98;;
11827;SDS011;5971;49.646;8.568;2024-02-21T11:12:34;9.07;;;2.33;;
11827;SDS011;5971;49.646;8.568;2024-02-21T11:15:36;5.28;;;2.15;;
11827;SDS011;5971;49.646;8.568;2024-02-21T11:18:37;7.35;;;2.53;;
11827;SDS011;5971;49.646;8.568;2024-02-21T11:21:39;7.70;;;2.53;;
11827;SDS011;5971;49.646;8.568;2024-02-21T11:24:42;5.20;;;2.17;;
11827;SDS011;5971;49.646;8.568;2024-02-21T11:27:47;6.75;;;3.40;;
11827;SDS011;5971;49.646;8.568;2024-02-21T11:30:48;6.97;;;2.20;;
11827;SDS011;5971;49.646;8.568;2024-02-21T11:33:52;5.53;;;2.72;;
11827;SDS011;5971;49.646;8.568;2024-02-21T11:36:54;8.15;;;2.72;;
11827;SDS011;5971;49.646;8.568;2024-02-21T11:39:55;6.68;;;3.33;;
11827;SDS011;5971;49.646;8.568;2024-02-21T11:42:58;6.40;;;2.00;;
11827;SDS011;5971;49.646;8.568;2024-02-21T11:46:00;8.13;;;2.20;;
11827;SDS011;5971;49.646;8.568;2024-02-21T11:49:02;6.80;;;2.65;;
11827;SDS011;5971;49.646;8.568;2024-02-21T11:52:04;4.25;;;1.92;;
11827;SDS011;5971;49.646;8.568;2024-02-21T11:55:06;5.55;;;2.00;;
11827;SDS011;5971;49.646;8.568;2024-02-21T11:58:10;5.50;;;2.70;;
11827;SDS011;5971;49.646;8.568;2024-02-21T12:01:11;4.80;;;2.10;;
11827;SDS011;5971;49.646;8.568;2024-02-21T12:04:12;5.47;;;1.90;;
11827;SDS011;5971;49.646;8.568;2024-02-21T12:07:14;4.07;;;2.30;;
11827;SDS011;5971;49.646;8.568;2024-02-21T12:10:15;8.75;;;2.70;;
11827;SDS011;5971;49.646;8.568;2024-02-21T12:13:17;6.32;;;2.42;;
11827;SDS011;5971;49.646;8.568;2024-02-21T12:16:18;6.90;;;2.22;;
11827;SDS011;5971;49.646;8.568;2024-02-21T12:19:20;4.38;;;1.73;;
11827;SDS011;5971;49.646;8.568;2024-02-21T12:22:21;4.35;;;1.95;;
11827;SDS011;5971;49.646;8.568;2024-02-21T12:25:23;6.80;;;2.20;;
11827;SDS011;5971;49.646;8.568;2024-02-21T12:28:27;7.43;;;2.47;;
11827;SDS011;5971;49.646;8.568;2024-02-21T12:31:28;5.78;;;2.33;;
11827;SDS011;5971;49.646;8.568;2024-02-21T12:34:30;11.07;;;2.30;;
11827;SDS011;5971;49.646;8.568;2024-02-21T12:37:49;7.13;;;2.35;;
11827;SDS011;5971;49.646;8.568;2024-02-21T12:40:50;6.80;;;2.95;;
11827;SDS011;5971;49.646;8.568;2024-02-21T12:43:52;5.10;;;2.05;;
11827;SDS011;5971;49.646;8.568;2024-02-21T12:46:53;4.63;;;2.00;;
11827;SDS011;5971;49.646;8.568;2024-02-21T12:49:56;6.95;;;2.28;;
11827;SDS011;5971;49.646;8.568;2024-02-21T12:52:57;4.18;;;2.00;;
11827;SDS011;5971;49.646;8.568;2024-02-21T12:56:00;3.92;;;2.00;;
11827;SDS011;5971;49.646;8.568;2024-02-21T12:59:01;5.47;;;2.20;;
11827;SDS011;5971;49.646;8.568;2024-02-21T13:02:03;6.13;;;2.05;;
11827;SDS011;5971;49.646;8.568;2024-02-21T13:05:04;8.50;;;2.65;;
11827;SDS011;5971;49.646;8.568;2024-02-21T13:08:06;8.07;;;2.30;;
11827;SDS011;5971;49.646;8.568;2024-02-21T13:11:08;6.68;;;2.03;;
11827;SDS011;5971;49.646;8.568;2024-02-21T13:14:09;4.97;;;1.70;;
11827;SDS011;5971;49.646;8.568;2024-02-21T13:17:11;6.38;;;2.17;;
11827;SDS011;5971;49.646;8.568;2024-02-21T13:20:12;4.72;;;1.98;;
11827;SDS011;5971;49.646;8.568;2024-02-21T13:23:14;4.15;;;1.70;;
11827;SDS011;5971;49.646;8.568;2024-02-21T13:26:15;7.45;;;2.10;;
11827;SDS011;5971;49.646;8.568;2024-02-21T13:29:17;6.38;;;2.40;;
11827;SDS011;5971;49.646;8.568;2024-02-21T13:32:18;6.40;;;2.05;;
11827;SDS011;5971;49.646;8.568;2024-02-21T13:35:20;5.20;;;1.92;;
11827;SDS011;5971;49.646;8.568;2024-02-21T13:38:21;6.07;;;2.10;;
11827;SDS011;5971;49.646;8.568;2024-02-21T13:41:23;6.20;;;1.83;;
11827;SDS011;5971;49.646;8.568;2024-02-21T13:44:24;5.65;;;2.05;;
11827;SDS011;5971;49.646;8.568;2024-02-21T13:47:26;4.07;;;1.67;;
11827;SDS011;5971;49.646;8.568;2024-02-21T13:50:30;5.15;;;1.88;;
11827;SDS011;5971;49.646;8.568;2024-02-21T13:53:43;4.93;;;2.22;;
11827;SDS011;5971;49.646;8.568;2024-02-21T13:56:44;7.25;;;2.40;;
11827;SDS011;5971;49.646;8.568;2024-02-21T13:59:46;5.88;;;2.00;;
11827;SDS011;5971;49.646;8.568;2024-02-21T14:02:47;4.55;;;2.03;;
11827;SDS011;5971;49.646;8.568;2024-02-21T14:05:48;4.57;;;1.77;;
11827;SDS011;5971;49.646;8.568;2024-02-21T14:08:50;7.57;;;2.20;;
11827;SDS011;5971;49.646;8.568;2024-02-21T14:11:51;9.63;;;2.63;;
11827;SDS011;5971;49.646;8.568;2024-02-21T14:14:53;5.50;;;2.10;;
11827;SDS011;5971;49.646;8.568;2024-02-21T14:17:54;6.15;;;2.22;;
11827;SDS011;5971;49.646;8.568;2024-02-21T14:20:57;4.45;;;1.92;;
11827;SDS011;5971;49.646;8.568;2024-02-21T14:23:58;4.15;;;1.75;;
11827;SDS011;5971;49.646;8.568;2024-02-21T14:27:03;5.63;;;2.03;;
11827;SDS011;5971;49.646;8.568;2024-02-21T14:30:04;6.93;;;2.90;;
11827;SDS011;5971;49.646;8.568;2024-02-21T14:33:06;6.57;;;2.42;;
11827;SDS011;5971;49.646;8.568;2024-02-21T14:36:09;7.07;;;2.50;;
11827;SDS011;5971;49.646;8.568;2024-02-21T14:39:11;6.63;;;3.17;;
11827;SDS011;5971;49.646;8.568;2024-02-21T14:42:13;9.88;;;3.03;;
11827;SDS011;5971;49.646;8.568;2024-02-21T14:45:14;7.90;;;2.53;;
11827;SDS011;5971;49.646;8.568;2024-02-21T14:48:15;5.93;;;2.10;;
11827;SDS011;5971;49.646;8.568;2024-02-21T14:51:17;5.65;;;2.55;;
11827;SDS011;5971;49.646;8.568;2024-02-21T14:54:19;7.88;;;2.25;;
11827;SDS011;5971;49.646;8.568;2024-02-21T14:57:21;8.80;;;2.35;;
11827;SDS011;5971;49.646;8.568;2024-02-21T15:00:22;4.63;;;2.00;;
11827;SDS011;5971;49.646;8.568;2024-02-21T15:03:30;7.05;;;1.90;;
11827;SDS011;5971;49.646;8.568;2024-02-21T15:06:32;9.40;;;2.35;;
11827;SDS011;5971;49.646;8.568;2024-02-21T15:09:33;5.10;;;2.70;;
11827;SDS011;5971;49.646;8.568;2024-02-21T15:12:35;7.00;;;2.17;;
11827;SDS011;5971;49.646;8.568;2024-02-21T15:15:36;6.53;;;2.17;;
11827;SDS011;5971;49.646;8.568;2024-02-21T15:18:37;5.03;;;2.50;;
11827;SDS011;5971;49.646;8.568;2024-02-21T15:21:39;6.70;;;2.00;;
11827;SDS011;5971;49.646;8.568;2024-02-21T15:24:41;6.63;;;2.30;;
11827;SDS011;5971;49.646;8.568;2024-02-21T15:27:43;5.57;;;2.25;;
11827;SDS011;5971;49.646;8.568;2024-02-21T15:30:44;4.60;;;1.88;;
11827;SDS011;5971;49.646;8.568;2024-02-21T15:33:46;7.68;;;2.03;;
11827;SDS011;5971;49.646;8.568;2024-02-21T15:36:47;5.20;;;1.92;;
11827;SDS011;5971;49.646;8.568;2024-02-21T15:39:49;7.22;;;2.70;;
11827;SDS011;5971;49.646;8.568;2024-02-21T15:42:50;5.72;;;2.20;;
11827;SDS011;5971;49.646;8.568;2024-02-21T15:45:52;5.00;;;2.35;;
11827;SDS011;5971;49.646;8.568;2024-02-21T15:48:54;4.78;;;1.95;;
11827;SDS011;5971;49.646;8.568;2024-02-21T15:51:56;8.60;;;1.88;;
11827;SDS011;5971;49.646;8.568;2024-02-21T15:54:57;7.78;;;2.42;;
11827;SDS011;5971;49.646;8.568;2024-02-21T15:57:58;5.72;;;1.95;;
11827;SDS011;5971;49.646;8.568;2024-02-21T16:01:00;7.63;;;2.40;;
11827;SDS011;5971;49.646;8.568;2024-02-21T16:04:01;3.97;;;1.77;;
11827;SDS011;5971;49.646;8.568;2024-02-21T16:07:03;3.75;;;1.75;;
11827;SDS011;5971;49.646;8.568;2024-02-21T16:10:05;5.90;;;2.00;;
11827;SDS011;5971;49.646;8.568;2024-02-21T16:13:06;6.03;;;1.85;;
11827;SDS011;5971;49.646;8.568;2024-02-21T16:16:09;3.72;;;1.52;;
11827;SDS011;5971;49.646;8.568;2024-02-21T16:19:10;5.03;;;2.17;;
11827;SDS011;5971;49.646;8.568;2024-02-21T16:22:12;4.70;;;2.20;;
11827;SDS011;5971;49.646;8.568;2024-02-21T16:25:14;6.53;;;3.45;;
11827;SDS011;5971;49.646;8.568;2024-02-21T16:28:18;5.97;;;2.63;;
11827;SDS011;5971;49.646;8.568;2024-02-21T16:31:20;5.45;;;2.33;;
11827;SDS011;5971;49.646;8.568;2024-02-21T16:34:21;3.80;;;1.80;;
11827;SDS011;5971;49.646;8.568;2024-02-21T16:37:23;5.13;;;1.80;;
11827;SDS011;5971;49.646;8.568;2024-02-21T16:40:24;4.85;;;1.83;;
11827;SDS011;5971;49.646;8.568;2024-02-21T16:43:26;4.35;;;1.65;;
11827;SDS011;5971;49.646;8.568;2024-02-21T16:46:28;5.22;;;2.03;;
11827;SDS011;5971;49.646;8.568;2024-02-21T16:49:29;6.88;;;2.05;;
11827;SDS011;5971;49.646;8.568;2024-02-21T16:52:37;5.35;;;2.70;;
11827;SDS011;5971;49.646;8.568;2024-02-21T16:55:38;4.10;;;1.65;;
11827;SDS011;5971;49.646;8.568;2024-02-21T16:58:40;5.47;;;2.40;;
11827;SDS011;5971;49.646;8.568;2024-02-21T17:01:41;6.38;;;1.80;;
11827;SDS011;5971;49.646;8.568;2024-02-21T17:04:43;9.07;;;2.42;;
11827;SDS011;5971;49.646;8.568;2024-02-21T17:07:45;5.75;;;2.00;;
11827;SDS011;5971;49.646;8.568;2024-02-21T17:10:46;6.45;;;2.42;;
11827;SDS011;5971;49.646;8.568;2024-02-21T17:13:48;4.85;;;2.50;;
11827;SDS011;5971;49.646;8.568;2024-02-21T17:16:49;7.55;;;2.45;;
11827;SDS011;5971;49.646;8.568;2024-02-21T17:19:50;7.50;;;2.25;;
11827;SDS011;5971;49.646;8.568;2024-02-21T17:22:52;3.83;;;2.03;;
11827;SDS011;5971;49.646;8.568;2024-02-21T17:25:53;4.38;;;1.50;;
11827;SDS011;5971;49.646;8.568;2024-02-21T17:28:55;6.40;;;2.35;;
11827;SDS011;5971;49.646;8.568;2024-02-21T17:31:57;6.75;;;2.35;;
11827;SDS011;5971;49.646;8.568;2024-02-21T17:34:58;6.35;;;3.17;;
11827;SDS011;5971;49.646;8.568;2024-02-21T17:38:00;6.13;;;2.10;;
11827;SDS011;5971;49.646;8.568;2024-02-21T17:41:02;4.68;;;2.05;;
11827;SDS011;5971;49.646;8.568;2024-02-21T17:44:04;5.68;;;2.10;;
11827;SDS011;5971;49.646;8.568;2024-02-21T17:47:05;5.70;;;2.20;;
11827;SDS011;5971;49.646;8.568;2024-02-21T17:50:07;5.93;;;2.63;;
11827;SDS011;5971;49.646;8.568;2024-02-21T17:53:08;5.72;;;3.08;;
11827;SDS011;5971;49.646;8.568;2024-02-21T17:56:10;4.20;;;1.85;;
11827;SDS011;5971;49.646;8.568;2024-02-21T17:59:12;4.00;;;2.10;;
11827;SDS011;5971;49.646;8.568;2024-02-21T18:02:13;5.20;;;2.20;;
11827;SDS011;5971;49.646;8.568;2024-02-21T18:05:21;4.85;;;2.00;;
11827;SDS011;5971;49.646;8.568;2024-02-21T18:08:22;5.18;;;2.15;;
11827;SDS011;5971;49.646;8.568;2024-02-21T18:11:24;3.95;;;1.85;;
11827;SDS011;5971;49.646;8.568;2024-02-21T18:14:25;4.43;;;1.83;;
11827;SDS011;5971;49.646;8.568;2024-02-21T18:17:27;4.30;;;2.03;;
11827;SDS011;5971;49.646;8.568;2024-02-21T18:20:28;8.00;;;2.33;;
11827;SDS011;5971;49.646;8.568;2024-02-21T18:23:29;5.93;;;2.33;;
11827;SDS011;5971;49.646;8.568;2024-02-21T18:26:31;5.68;;;2.42;;
11827;SDS011;5971;49.646;8.568;2024-02-21T18:29:32;6.13;;;2.50;;